sensor_id;sensor_type;location;lat;lon;timestamp;temperature;humidity
10891;DHT22;5498;50.928;11.598;2022-08-04T00:00:04;24.00;56.50
10891;DHT22;5498;50.928;11.598;2022-08-04T00:03:12;23.50;56.40
10891;DHT22;5498;50.928;11.598;2022-08-04T00:06:23;23.40;56.40
10891;DHT22;5498;50.928;11.598;2022-08-04T00:09:39;23.40;56.60
10891;DHT22;5498;50.928;11.598;2022-08-04T00:12:47;23.30;56.60
10891;DHT22;5498;50.928;11.598;2022-08-04T00:15:53;23.20;56.60
10891;DHT22;5498;50.928;11.598;2022-08-04T00:19:00;22.60;56.40
10891;DHT22;5498;50.928;11.598;2022-08-04T00:22:08;23.10;57.00
10891;DHT22;5498;50.928;11.598;2022-08-04T00:25:11;23.10;57.10
10891;DHT22;5498;50.928;11.598;2022-08-04T00:28:13;23.00;57.00
10891;DHT22;5498;50.928;11.598;2022-08-04T00:31:17;23.00;57.30
10891;DHT22;5498;50.928;11.598;2022-08-04T00:34:20;23.00;57.40
10891;DHT22;5498;50.928;11.598;2022-08-04T00:37:27;22.90;57.40
10891;DHT22;5498;50.928;11.598;2022-08-04T00:40:34;22.80;57.50
10891;DHT22;5498;50.928;11.598;2022-08-04T00:43:51;22.80;58.00
10891;DHT22;5498;50.928;11.598;2022-08-04T00:47:22;22.60;58.20
10891;DHT22;5498;50.928;11.598;2022-08-04T00:50:43;22.60;58.40
10891;DHT22;5498;50.928;11.598;2022-08-04T00:53:59;22.50;58.70
10891;DHT22;5498;50.928;11.598;2022-08-04T00:57:22;22.50;58.90
10891;DHT22;5498;50.928;11.598;2022-08-04T01:00:39;22.40;59.10
10891;DHT22;5498;50.928;11.598;2022-08-04T01:03:49;22.40;59.00
10891;DHT22;5498;50.928;11.598;2022-08-04T01:10:42;22.30;60.00
10891;DHT22;5498;50.928;11.598;2022-08-04T01:14:26;22.20;59.90
10891;DHT22;5498;50.928;11.598;2022-08-04T01:17:42;22.20;60.00
10891;DHT22;5498;50.928;11.598;2022-08-04T01:21:00;22.20;60.10
10891;DHT22;5498;50.928;11.598;2022-08-04T01:24:24;22.10;60.50
10891;DHT22;5498;50.928;11.598;2022-08-04T01:27:45;22.00;60.70
10891;DHT22;5498;50.928;11.598;2022-08-04T01:31:02;22.00;60.90
10891;DHT22;5498;50.928;11.598;2022-08-04T01:34:11;22.00;60.90
10891;DHT22;5498;50.928;11.598;2022-08-04T01:37:24;22.40;61.20
10891;DHT22;5498;50.928;11.598;2022-08-04T01:40:31;21.90;61.00
10891;DHT22;5498;50.928;11.598;2022-08-04T01:43:38;21.90;60.90
10891;DHT22;5498;50.928;11.598;2022-08-04T01:46:45;21.80;61.10
10891;DHT22;5498;50.928;11.598;2022-08-04T01:49:49;21.80;61.30
10891;DHT22;5498;50.928;11.598;2022-08-04T01:52:53;21.70;61.20
10891;DHT22;5498;50.928;11.598;2022-08-04T01:55:56;21.70;61.40
10891;DHT22;5498;50.928;11.598;2022-08-04T01:59:02;21.60;61.30
10891;DHT22;5498;50.928;11.598;2022-08-04T02:02:06;21.60;61.30
10891;DHT22;5498;50.928;11.598;2022-08-04T02:05:09;21.60;61.30
10891;DHT22;5498;50.928;11.598;2022-08-04T02:08:19;21.60;61.70
10891;DHT22;5498;50.928;11.598;2022-08-04T02:11:22;21.50;61.80
10891;DHT22;5498;50.928;11.598;2022-08-04T02:14:28;21.50;62.10
10891;DHT22;5498;50.928;11.598;2022-08-04T02:17:56;21.50;62.00
10891;DHT22;5498;50.928;11.598;2022-08-04T02:21:02;21.50;62.20
10891;DHT22;5498;50.928;11.598;2022-08-04T02:24:06;21.40;62.00
10891;DHT22;5498;50.928;11.598;2022-08-04T02:27:10;21.40;62.20
10891;DHT22;5498;50.928;11.598;2022-08-04T02:30:14;21.40;62.10
10891;DHT22;5498;50.928;11.598;2022-08-04T02:33:23;21.30;62.20
10891;DHT22;5498;50.928;11.598;2022-08-04T02:36:34;21.20;62.30
10891;DHT22;5498;50.928;11.598;2022-08-04T02:39:41;21.20;62.70
10891;DHT22;5498;50.928;11.598;2022-08-04T02:42:45;21.50;62.80
10891;DHT22;5498;50.928;11.598;2022-08-04T02:45:48;21.00;62.60
10891;DHT22;5498;50.928;11.598;2022-08-04T02:48:54;20.90;62.60
10891;DHT22;5498;50.928;11.598;2022-08-04T02:51:57;21.00;62.80
10891;DHT22;5498;50.928;11.598;2022-08-04T02:55:01;21.00;63.00
10891;DHT22;5498;50.928;11.598;2022-08-04T02:58:04;20.90;63.00
10891;DHT22;5498;50.928;11.598;2022-08-04T03:01:07;20.90;63.20
10891;DHT22;5498;50.928;11.598;2022-08-04T03:04:27;20.90;62.60
10891;DHT22;5498;50.928;11.598;2022-08-04T03:07:58;20.80;63.50
10891;DHT22;5498;50.928;11.598;2022-08-04T03:11:26;20.80;63.50
10891;DHT22;5498;50.928;11.598;2022-08-04T03:15:03;20.80;63.50
10891;DHT22;5498;50.928;11.598;2022-08-04T03:22:29;20.70;63.60
10891;DHT22;5498;50.928;11.598;2022-08-04T03:26:06;20.70;63.70
10891;DHT22;5498;50.928;11.598;2022-08-04T03:30:04;20.10;63.60
10891;DHT22;5498;50.928;11.598;2022-08-04T03:33:29;20.60;64.10
10891;DHT22;5498;50.928;11.598;2022-08-04T03:37:02;20.60;64.30
10891;DHT22;5498;50.928;11.598;2022-08-04T03:40:36;20.50;64.60
10891;DHT22;5498;50.928;11.598;2022-08-04T03:44:03;20.50;64.70
10891;DHT22;5498;50.928;11.598;2022-08-04T03:47:37;20.40;65.00
10891;DHT22;5498;50.928;11.598;2022-08-04T03:51:02;20.40;65.20
10891;DHT22;5498;50.928;11.598;2022-08-04T03:58:51;20.40;65.20
10891;DHT22;5498;50.928;11.598;2022-08-04T04:02:20;20.30;65.30
10891;DHT22;5498;50.928;11.598;2022-08-04T04:05:55;20.30;65.40
10891;DHT22;5498;50.928;11.598;2022-08-04T04:09:34;20.20;65.40
10891;DHT22;5498;50.928;11.598;2022-08-04T04:13:13;20.20;65.40
10891;DHT22;5498;50.928;11.598;2022-08-04T04:16:37;20.20;65.50
10891;DHT22;5498;50.928;11.598;2022-08-04T04:19:58;20.20;65.60
10891;DHT22;5498;50.928;11.598;2022-08-04T04:23:37;20.10;65.70
10891;DHT22;5498;50.928;11.598;2022-08-04T04:27:04;20.20;65.90
10891;DHT22;5498;50.928;11.598;2022-08-04T04:30:15;20.20;65.90
10891;DHT22;5498;50.928;11.598;2022-08-04T04:33:32;20.30;65.80
10891;DHT22;5498;50.928;11.598;2022-08-04T04:36:50;20.40;65.50
10891;DHT22;5498;50.928;11.598;2022-08-04T04:40:10;20.60;65.10
10891;DHT22;5498;50.928;11.598;2022-08-04T04:43:41;20.70;64.40
10891;DHT22;5498;50.928;11.598;2022-08-04T04:46:58;21.00;63.80
10891;DHT22;5498;50.928;11.598;2022-08-04T04:50:13;21.20;63.10
10891;DHT22;5498;50.928;11.598;2022-08-04T04:53:26;21.40;62.30
10891;DHT22;5498;50.928;11.598;2022-08-04T04:56:36;21.60;61.80
10891;DHT22;5498;50.928;11.598;2022-08-04T04:59:46;21.90;61.40
10891;DHT22;5498;50.928;11.598;2022-08-04T05:03:08;22.60;61.00
10891;DHT22;5498;50.928;11.598;2022-08-04T05:06:42;22.40;60.10
10891;DHT22;5498;50.928;11.598;2022-08-04T05:09:57;22.60;59.60
10891;DHT22;5498;50.928;11.598;2022-08-04T05:13:23;22.80;59.20
10891;DHT22;5498;50.928;11.598;2022-08-04T05:16:36;23.00;58.90
10891;DHT22;5498;50.928;11.598;2022-08-04T05:19:50;23.10;58.60
10891;DHT22;5498;50.928;11.598;2022-08-04T05:22:59;23.30;58.50
10891;DHT22;5498;50.928;11.598;2022-08-04T05:26:08;23.50;58.20
10891;DHT22;5498;50.928;11.598;2022-08-04T05:29:17;23.70;58.10
10891;DHT22;5498;50.928;11.598;2022-08-04T05:32:29;24.20;57.90
10891;DHT22;5498;50.928;11.598;2022-08-04T05:35:41;24.10;57.20
10891;DHT22;5498;50.928;11.598;2022-08-04T05:38:50;24.30;56.90
10891;DHT22;5498;50.928;11.598;2022-08-04T05:41:54;24.50;56.50
10891;DHT22;5498;50.928;11.598;2022-08-04T05:44:58;24.70;56.20
10891;DHT22;5498;50.928;11.598;2022-08-04T05:48:01;25.00;55.80
10891;DHT22;5498;50.928;11.598;2022-08-04T05:51:04;25.70;55.40
10891;DHT22;5498;50.928;11.598;2022-08-04T05:54:12;26.00;55.10
10891;DHT22;5498;50.928;11.598;2022-08-04T05:57:15;25.90;54.40
10891;DHT22;5498;50.928;11.598;2022-08-04T06:00:18;26.10;53.50
10891;DHT22;5498;50.928;11.598;2022-08-04T06:03:20;26.70;53.20
10891;DHT22;5498;50.928;11.598;2022-08-04T06:06:24;26.60;52.80
10891;DHT22;5498;50.928;11.598;2022-08-04T06:09:28;26.80;51.70
10891;DHT22;5498;50.928;11.598;2022-08-04T06:12:35;27.00;51.70
10891;DHT22;5498;50.928;11.598;2022-08-04T06:15:40;27.20;51.40
10891;DHT22;5498;50.928;11.598;2022-08-04T06:18:48;27.40;50.70
10891;DHT22;5498;50.928;11.598;2022-08-04T06:21:54;27.90;50.50
10891;DHT22;5498;50.928;11.598;2022-08-04T06:25:00;27.80;49.70
10891;DHT22;5498;50.928;11.598;2022-08-04T06:28:05;28.10;49.80
10891;DHT22;5498;50.928;11.598;2022-08-04T06:31:08;28.30;49.30
10891;DHT22;5498;50.928;11.598;2022-08-04T06:34:13;28.40;48.80
10891;DHT22;5498;50.928;11.598;2022-08-04T06:37:16;28.60;48.70
10891;DHT22;5498;50.928;11.598;2022-08-04T06:40:21;28.70;48.70
10891;DHT22;5498;50.928;11.598;2022-08-04T06:43:25;28.80;48.50
10891;DHT22;5498;50.928;11.598;2022-08-04T06:46:28;29.00;48.40
10891;DHT22;5498;50.928;11.598;2022-08-04T06:49:31;29.20;48.00
10891;DHT22;5498;50.928;11.598;2022-08-04T06:52:34;29.40;48.00
10891;DHT22;5498;50.928;11.598;2022-08-04T06:55:39;29.50;47.70
10891;DHT22;5498;50.928;11.598;2022-08-04T06:58:43;29.60;47.60
10891;DHT22;5498;50.928;11.598;2022-08-04T07:01:46;29.70;47.70
10891;DHT22;5498;50.928;11.598;2022-08-04T07:04:49;29.90;47.40
10891;DHT22;5498;50.928;11.598;2022-08-04T07:07:51;30.00;47.00
10891;DHT22;5498;50.928;11.598;2022-08-04T07:10:57;30.40;47.10
10891;DHT22;5498;50.928;11.598;2022-08-04T07:14:02;30.40;46.70
10891;DHT22;5498;50.928;11.598;2022-08-04T07:17:07;30.60;46.30
10891;DHT22;5498;50.928;11.598;2022-08-04T07:20:10;30.70;46.30
10891;DHT22;5498;50.928;11.598;2022-08-04T07:23:13;31.00;46.20
10891;DHT22;5498;50.928;11.598;2022-08-04T07:26:26;31.10;46.00
10891;DHT22;5498;50.928;11.598;2022-08-04T07:29:29;31.40;45.80
10891;DHT22;5498;50.928;11.598;2022-08-04T07:32:31;31.80;45.60
10891;DHT22;5498;50.928;11.598;2022-08-04T07:35:34;31.80;45.40
10891;DHT22;5498;50.928;11.598;2022-08-04T07:38:36;32.10;44.90
10891;DHT22;5498;50.928;11.598;2022-08-04T07:41:40;32.40;44.40
10891;DHT22;5498;50.928;11.598;2022-08-04T07:44:44;32.70;43.90
10891;DHT22;5498;50.928;11.598;2022-08-04T07:47:46;32.90;43.60
10891;DHT22;5498;50.928;11.598;2022-08-04T07:50:49;33.00;43.40
10891;DHT22;5498;50.928;11.598;2022-08-04T07:53:52;33.20;43.10
10891;DHT22;5498;50.928;11.598;2022-08-04T07:56:56;33.40;42.60
10891;DHT22;5498;50.928;11.598;2022-08-04T07:59:58;33.60;42.30
10891;DHT22;5498;50.928;11.598;2022-08-04T08:03:00;33.90;41.80
10891;DHT22;5498;50.928;11.598;2022-08-04T08:06:04;34.20;41.70
10891;DHT22;5498;50.928;11.598;2022-08-04T08:09:07;34.50;40.80
10891;DHT22;5498;50.928;11.598;2022-08-04T08:12:13;34.70;40.70
10891;DHT22;5498;50.928;11.598;2022-08-04T08:15:15;34.90;40.00
10891;DHT22;5498;50.928;11.598;2022-08-04T08:18:18;35.00;39.70
10891;DHT22;5498;50.928;11.598;2022-08-04T08:21:20;35.20;39.40
10891;DHT22;5498;50.928;11.598;2022-08-04T08:24:22;35.40;38.80
10891;DHT22;5498;50.928;11.598;2022-08-04T08:27:26;35.60;37.30
10891;DHT22;5498;50.928;11.598;2022-08-04T08:30:28;35.80;37.20
10891;DHT22;5498;50.928;11.598;2022-08-04T08:33:30;36.00;37.00
10891;DHT22;5498;50.928;11.598;2022-08-04T08:36:36;36.10;36.70
10891;DHT22;5498;50.928;11.598;2022-08-04T08:39:43;36.20;36.10
10891;DHT22;5498;50.928;11.598;2022-08-04T08:43:14;36.50;35.60
10891;DHT22;5498;50.928;11.598;2022-08-04T08:46:42;36.60;35.60
10891;DHT22;5498;50.928;11.598;2022-08-04T08:50:02;36.80;35.40
10891;DHT22;5498;50.928;11.598;2022-08-04T08:53:23;36.90;34.80
10891;DHT22;5498;50.928;11.598;2022-08-04T08:56:38;37.10;34.60
10891;DHT22;5498;50.928;11.598;2022-08-04T09:00:03;37.30;34.20
10891;DHT22;5498;50.928;11.598;2022-08-04T09:03:41;37.40;33.10
10891;DHT22;5498;50.928;11.598;2022-08-04T09:07:01;37.40;33.60
10891;DHT22;5498;50.928;11.598;2022-08-04T09:10:16;37.50;33.50
10891;DHT22;5498;50.928;11.598;2022-08-04T09:13:23;37.60;32.80
10891;DHT22;5498;50.928;11.598;2022-08-04T09:16:35;37.60;32.40
10891;DHT22;5498;50.928;11.598;2022-08-04T09:19:44;37.60;33.00
10891;DHT22;5498;50.928;11.598;2022-08-04T09:22:56;37.70;32.10
10891;DHT22;5498;50.928;11.598;2022-08-04T09:26:10;37.30;31.80
10891;DHT22;5498;50.928;11.598;2022-08-04T09:29:19;37.20;32.90
10891;DHT22;5498;50.928;11.598;2022-08-04T09:32:32;37.20;32.80
10891;DHT22;5498;50.928;11.598;2022-08-04T09:35:43;37.40;32.40
10891;DHT22;5498;50.928;11.598;2022-08-04T09:38:54;37.50;32.20
10891;DHT22;5498;50.928;11.598;2022-08-04T09:42:17;37.60;32.20
10891;DHT22;5498;50.928;11.598;2022-08-04T09:45:26;37.80;31.50
10891;DHT22;5498;50.928;11.598;2022-08-04T09:48:36;37.90;31.70
10891;DHT22;5498;50.928;11.598;2022-08-04T09:51:48;38.00;31.60
10891;DHT22;5498;50.928;11.598;2022-08-04T09:55:04;38.00;30.50
10891;DHT22;5498;50.928;11.598;2022-08-04T09:58:16;38.00;30.70
10891;DHT22;5498;50.928;11.598;2022-08-04T10:01:27;38.00;30.60
10891;DHT22;5498;50.928;11.598;2022-08-04T10:04:34;37.90;31.20
10891;DHT22;5498;50.928;11.598;2022-08-04T10:07:58;37.90;31.00
10891;DHT22;5498;50.928;11.598;2022-08-04T10:11:08;37.70;30.90
10891;DHT22;5498;50.928;11.598;2022-08-04T10:14:39;37.60;31.60
10891;DHT22;5498;50.928;11.598;2022-08-04T10:18:08;37.60;31.80
10891;DHT22;5498;50.928;11.598;2022-08-04T10:21:20;37.70;31.90
10891;DHT22;5498;50.928;11.598;2022-08-04T10:24:32;37.70;31.60
10891;DHT22;5498;50.928;11.598;2022-08-04T10:27:44;37.70;30.70
10891;DHT22;5498;50.928;11.598;2022-08-04T10:30:50;37.70;31.10
10891;DHT22;5498;50.928;11.598;2022-08-04T10:34:00;37.70;30.50
10891;DHT22;5498;50.928;11.598;2022-08-04T10:37:15;37.60;31.40
10891;DHT22;5498;50.928;11.598;2022-08-04T10:40:26;37.60;32.20
10891;DHT22;5498;50.928;11.598;2022-08-04T10:43:47;37.60;31.50
10891;DHT22;5498;50.928;11.598;2022-08-04T10:46:56;37.70;31.60
10891;DHT22;5498;50.928;11.598;2022-08-04T10:50:00;37.70;31.60
10891;DHT22;5498;50.928;11.598;2022-08-04T10:53:10;37.60;31.10
10891;DHT22;5498;50.928;11.598;2022-08-04T10:56:18;37.60;30.60
10891;DHT22;5498;50.928;11.598;2022-08-04T10:59:27;37.60;30.50
10891;DHT22;5498;50.928;11.598;2022-08-04T11:02:36;37.60;30.80
10891;DHT22;5498;50.928;11.598;2022-08-04T11:05:46;37.30;30.40
10891;DHT22;5498;50.928;11.598;2022-08-04T11:08:54;37.10;31.00
10891;DHT22;5498;50.928;11.598;2022-08-04T11:12:02;37.10;31.00
10891;DHT22;5498;50.928;11.598;2022-08-04T11:15:09;37.10;31.60
10891;DHT22;5498;50.928;11.598;2022-08-04T11:18:16;37.10;31.40
10891;DHT22;5498;50.928;11.598;2022-08-04T11:21:27;37.10;31.00
10891;DHT22;5498;50.928;11.598;2022-08-04T11:24:38;37.00;31.20
10891;DHT22;5498;50.928;11.598;2022-08-04T11:27:53;37.10;31.40
10891;DHT22;5498;50.928;11.598;2022-08-04T11:31:03;37.20;31.40
10891;DHT22;5498;50.928;11.598;2022-08-04T11:34:17;37.30;31.20
10891;DHT22;5498;50.928;11.598;2022-08-04T11:37:26;37.20;30.70
10891;DHT22;5498;50.928;11.598;2022-08-04T11:40:36;37.20;30.60
10891;DHT22;5498;50.928;11.598;2022-08-04T11:43:43;37.20;30.90
10891;DHT22;5498;50.928;11.598;2022-08-04T11:46:50;37.20;31.10
10891;DHT22;5498;50.928;11.598;2022-08-04T11:50:02;37.50;31.10
10891;DHT22;5498;50.928;11.598;2022-08-04T11:53:08;37.50;31.20
10891;DHT22;5498;50.928;11.598;2022-08-04T11:56:17;37.20;30.50
10891;DHT22;5498;50.928;11.598;2022-08-04T11:59:21;37.20;30.30
10891;DHT22;5498;50.928;11.598;2022-08-04T12:02:41;37.00;30.70
10891;DHT22;5498;50.928;11.598;2022-08-04T12:06:09;36.70;30.80
10891;DHT22;5498;50.928;11.598;2022-08-04T12:09:21;36.60;30.80
10891;DHT22;5498;50.928;11.598;2022-08-04T12:12:38;36.60;31.10
10891;DHT22;5498;50.928;11.598;2022-08-04T12:15:51;36.60;30.80
10891;DHT22;5498;50.928;11.598;2022-08-04T12:19:01;36.60;31.10
10891;DHT22;5498;50.928;11.598;2022-08-04T12:22:10;36.50;31.10
10891;DHT22;5498;50.928;11.598;2022-08-04T12:25:17;36.40;31.30
10891;DHT22;5498;50.928;11.598;2022-08-04T12:28:26;36.40;31.50
10891;DHT22;5498;50.928;11.598;2022-08-04T12:31:39;36.50;31.60
10891;DHT22;5498;50.928;11.598;2022-08-04T12:34:48;36.40;31.50
10891;DHT22;5498;50.928;11.598;2022-08-04T12:38:02;36.40;31.50
10891;DHT22;5498;50.928;11.598;2022-08-04T12:41:07;36.30;31.20
10891;DHT22;5498;50.928;11.598;2022-08-04T12:44:13;36.20;31.60
10891;DHT22;5498;50.928;11.598;2022-08-04T12:47:15;36.30;31.90
10891;DHT22;5498;50.928;11.598;2022-08-04T12:50:19;36.50;31.90
10891;DHT22;5498;50.928;11.598;2022-08-04T12:53:26;36.30;32.10
10891;DHT22;5498;50.928;11.598;2022-08-04T12:56:31;36.40;31.70
10891;DHT22;5498;50.928;11.598;2022-08-04T12:59:38;36.40;31.80
10891;DHT22;5498;50.928;11.598;2022-08-04T13:02:42;36.40;31.50
10891;DHT22;5498;50.928;11.598;2022-08-04T13:05:48;36.40;31.10
10891;DHT22;5498;50.928;11.598;2022-08-04T13:08:54;36.30;31.20
10891;DHT22;5498;50.928;11.598;2022-08-04T13:12:10;36.30;31.60
10891;DHT22;5498;50.928;11.598;2022-08-04T13:15:17;36.20;31.70
10891;DHT22;5498;50.928;11.598;2022-08-04T13:18:22;36.20;31.70
10891;DHT22;5498;50.928;11.598;2022-08-04T13:21:27;36.20;32.00
10891;DHT22;5498;50.928;11.598;2022-08-04T13:24:32;36.20;31.90
10891;DHT22;5498;50.928;11.598;2022-08-04T13:27:37;36.20;31.90
10891;DHT22;5498;50.928;11.598;2022-08-04T13:30:43;36.20;32.10
10891;DHT22;5498;50.928;11.598;2022-08-04T13:33:48;36.30;31.80
10891;DHT22;5498;50.928;11.598;2022-08-04T13:36:54;36.20;31.30
10891;DHT22;5498;50.928;11.598;2022-08-04T13:39:58;36.20;31.30
10891;DHT22;5498;50.928;11.598;2022-08-04T13:43:01;36.20;31.30
10891;DHT22;5498;50.928;11.598;2022-08-04T13:46:05;36.20;31.60
10891;DHT22;5498;50.928;11.598;2022-08-04T13:49:10;36.00;31.20
10891;DHT22;5498;50.928;11.598;2022-08-04T13:52:15;36.00;31.30
10891;DHT22;5498;50.928;11.598;2022-08-04T13:55:23;35.90;31.80
10891;DHT22;5498;50.928;11.598;2022-08-04T13:58:30;36.00;32.20
10891;DHT22;5498;50.928;11.598;2022-08-04T14:01:35;36.10;32.10
10891;DHT22;5498;50.928;11.598;2022-08-04T14:04:40;36.10;31.90
10891;DHT22;5498;50.928;11.598;2022-08-04T14:07:54;36.20;31.90
10891;DHT22;5498;50.928;11.598;2022-08-04T14:10:59;36.20;31.50
10891;DHT22;5498;50.928;11.598;2022-08-04T14:14:12;36.20;31.70
10891;DHT22;5498;50.928;11.598;2022-08-04T14:17:18;36.20;32.10
10891;DHT22;5498;50.928;11.598;2022-08-04T14:20:24;36.20;32.40
10891;DHT22;5498;50.928;11.598;2022-08-04T14:23:27;36.20;32.20
10891;DHT22;5498;50.928;11.598;2022-08-04T14:26:32;36.20;32.40
10891;DHT22;5498;50.928;11.598;2022-08-04T14:29:36;36.20;31.70
10891;DHT22;5498;50.928;11.598;2022-08-04T14:33:00;36.00;31.80
10891;DHT22;5498;50.928;11.598;2022-08-04T14:36:03;36.30;32.30
10891;DHT22;5498;50.928;11.598;2022-08-04T14:39:06;36.00;32.00
10891;DHT22;5498;50.928;11.598;2022-08-04T14:42:10;36.00;31.90
10891;DHT22;5498;50.928;11.598;2022-08-04T14:45:12;36.00;31.40
10891;DHT22;5498;50.928;11.598;2022-08-04T14:48:15;35.90;31.10
10891;DHT22;5498;50.928;11.598;2022-08-04T14:51:18;36.00;31.10
10891;DHT22;5498;50.928;11.598;2022-08-04T14:54:26;36.00;30.80
10891;DHT22;5498;50.928;11.598;2022-08-04T14:57:29;36.00;31.50
10891;DHT22;5498;50.928;11.598;2022-08-04T15:00:33;36.00;30.80
10891;DHT22;5498;50.928;11.598;2022-08-04T15:03:41;36.10;31.10
10891;DHT22;5498;50.928;11.598;2022-08-04T15:06:46;36.10;31.00
10891;DHT22;5498;50.928;11.598;2022-08-04T15:09:48;35.90;31.20
10891;DHT22;5498;50.928;11.598;2022-08-04T15:12:50;36.20;31.10
10891;DHT22;5498;50.928;11.598;2022-08-04T15:15:53;36.00;30.80
10891;DHT22;5498;50.928;11.598;2022-08-04T15:18:56;36.00;30.80
10891;DHT22;5498;50.928;11.598;2022-08-04T15:21:59;35.90;31.20
10891;DHT22;5498;50.928;11.598;2022-08-04T15:25:03;36.00;31.70
10891;DHT22;5498;50.928;11.598;2022-08-04T15:28:07;36.00;31.50
10891;DHT22;5498;50.928;11.598;2022-08-04T15:31:14;36.00;31.60
10891;DHT22;5498;50.928;11.598;2022-08-04T15:34:19;36.00;31.40
10891;DHT22;5498;50.928;11.598;2022-08-04T15:37:27;36.00;31.70
10891;DHT22;5498;50.928;11.598;2022-08-04T15:40:38;36.10;31.70
10891;DHT22;5498;50.928;11.598;2022-08-04T15:43:57;36.00;31.90
10891;DHT22;5498;50.928;11.598;2022-08-04T15:47:14;36.00;31.30
10891;DHT22;5498;50.928;11.598;2022-08-04T15:50:18;36.30;30.90
10891;DHT22;5498;50.928;11.598;2022-08-04T15:53:19;36.30;31.20
10891;DHT22;5498;50.928;11.598;2022-08-04T15:56:44;36.00;31.60
10891;DHT22;5498;50.928;11.598;2022-08-04T16:00:03;36.10;31.90
10891;DHT22;5498;50.928;11.598;2022-08-04T16:03:43;36.00;31.50
10891;DHT22;5498;50.928;11.598;2022-08-04T16:06:47;36.00;31.70
10891;DHT22;5498;50.928;11.598;2022-08-04T16:09:49;36.00;31.70
10891;DHT22;5498;50.928;11.598;2022-08-04T16:12:56;36.00;31.50
10891;DHT22;5498;50.928;11.598;2022-08-04T16:15:58;35.90;32.10
10891;DHT22;5498;50.928;11.598;2022-08-04T16:19:03;35.90;31.70
10891;DHT22;5498;50.928;11.598;2022-08-04T16:22:10;35.90;32.20
10891;DHT22;5498;50.928;11.598;2022-08-04T16:25:41;35.80;32.20
10891;DHT22;5498;50.928;11.598;2022-08-04T16:28:44;35.70;32.30
10891;DHT22;5498;50.928;11.598;2022-08-04T16:32:11;35.70;32.00
10891;DHT22;5498;50.928;11.598;2022-08-04T16:35:20;35.70;32.50
10891;DHT22;5498;50.928;11.598;2022-08-04T16:38:26;35.60;31.70
10891;DHT22;5498;50.928;11.598;2022-08-04T16:41:38;35.60;32.20
10891;DHT22;5498;50.928;11.598;2022-08-04T16:44:41;35.60;32.60
10891;DHT22;5498;50.928;11.598;2022-08-04T16:48:01;35.50;32.40
10891;DHT22;5498;50.928;11.598;2022-08-04T16:51:08;35.50;32.60
10891;DHT22;5498;50.928;11.598;2022-08-04T16:54:14;35.40;32.80
10891;DHT22;5498;50.928;11.598;2022-08-04T16:57:16;35.40;33.00
10891;DHT22;5498;50.928;11.598;2022-08-04T17:00:26;35.30;32.80
10891;DHT22;5498;50.928;11.598;2022-08-04T17:03:30;35.30;33.00
10891;DHT22;5498;50.928;11.598;2022-08-04T17:06:37;35.30;32.70
10891;DHT22;5498;50.928;11.598;2022-08-04T17:09:50;35.30;33.50
10891;DHT22;5498;50.928;11.598;2022-08-04T17:12:52;35.20;32.90
10891;DHT22;5498;50.928;11.598;2022-08-04T17:15:55;35.20;32.10
10891;DHT22;5498;50.928;11.598;2022-08-04T17:18:58;35.20;32.50
10891;DHT22;5498;50.928;11.598;2022-08-04T17:22:02;35.10;32.60
10891;DHT22;5498;50.928;11.598;2022-08-04T17:25:08;35.10;32.80
10891;DHT22;5498;50.928;11.598;2022-08-04T17:28:10;35.10;32.50
10891;DHT22;5498;50.928;11.598;2022-08-04T17:31:12;35.10;32.30
10891;DHT22;5498;50.928;11.598;2022-08-04T17:34:16;35.00;32.50
10891;DHT22;5498;50.928;11.598;2022-08-04T17:37:22;35.00;32.60
10891;DHT22;5498;50.928;11.598;2022-08-04T17:40:26;34.90;32.90
10891;DHT22;5498;50.928;11.598;2022-08-04T17:43:43;34.90;32.70
10891;DHT22;5498;50.928;11.598;2022-08-04T17:46:46;34.90;33.30
10891;DHT22;5498;50.928;11.598;2022-08-04T17:49:49;34.80;33.10
10891;DHT22;5498;50.928;11.598;2022-08-04T17:53:00;35.10;33.20
10891;DHT22;5498;50.928;11.598;2022-08-04T17:56:05;34.80;33.30
10891;DHT22;5498;50.928;11.598;2022-08-04T17:59:30;34.70;33.00
10891;DHT22;5498;50.928;11.598;2022-08-04T18:02:51;34.70;33.20
10891;DHT22;5498;50.928;11.598;2022-08-04T18:05:54;34.60;33.10
10891;DHT22;5498;50.928;11.598;2022-08-04T18:08:57;34.60;33.10
10891;DHT22;5498;50.928;11.598;2022-08-04T18:12:02;34.50;33.40
10891;DHT22;5498;50.928;11.598;2022-08-04T18:15:07;34.50;34.00
10891;DHT22;5498;50.928;11.598;2022-08-04T18:18:21;34.40;34.60
10891;DHT22;5498;50.928;11.598;2022-08-04T18:21:23;34.80;35.10
10891;DHT22;5498;50.928;11.598;2022-08-04T18:24:26;34.50;35.50
10891;DHT22;5498;50.928;11.598;2022-08-04T18:27:30;34.20;36.40
10891;DHT22;5498;50.928;11.598;2022-08-04T18:30:33;34.10;36.60
10891;DHT22;5498;50.928;11.598;2022-08-04T18:33:35;34.10;36.80
10891;DHT22;5498;50.928;11.598;2022-08-04T18:36:37;34.00;37.30
10891;DHT22;5498;50.928;11.598;2022-08-04T18:39:39;33.80;38.00
10891;DHT22;5498;50.928;11.598;2022-08-04T18:42:43;33.70;39.00
10891;DHT22;5498;50.928;11.598;2022-08-04T18:45:46;33.60;39.50
10891;DHT22;5498;50.928;11.598;2022-08-04T18:48:49;33.40;40.10
10891;DHT22;5498;50.928;11.598;2022-08-04T18:51:51;33.30;40.20
10891;DHT22;5498;50.928;11.598;2022-08-04T18:54:53;33.50;40.40
10891;DHT22;5498;50.928;11.598;2022-08-04T18:57:56;33.00;40.20
10891;DHT22;5498;50.928;11.598;2022-08-04T19:00:58;32.90;40.10
10891;DHT22;5498;50.928;11.598;2022-08-04T19:04:00;32.80;40.50
10891;DHT22;5498;50.928;11.598;2022-08-04T19:07:03;32.60;40.70
10891;DHT22;5498;50.928;11.598;2022-08-04T19:10:06;32.50;41.20
10891;DHT22;5498;50.928;11.598;2022-08-04T19:13:09;32.40;41.70
10891;DHT22;5498;50.928;11.598;2022-08-04T19:16:12;32.30;42.10
10891;DHT22;5498;50.928;11.598;2022-08-04T19:19:14;32.10;42.40
10891;DHT22;5498;50.928;11.598;2022-08-04T19:22:17;31.60;41.50
10891;DHT22;5498;50.928;11.598;2022-08-04T19:25:19;31.90;42.70
10891;DHT22;5498;50.928;11.598;2022-08-04T19:28:23;31.80;43.30
10891;DHT22;5498;50.928;11.598;2022-08-04T19:31:26;31.70;43.70
10891;DHT22;5498;50.928;11.598;2022-08-04T19:34:27;31.60;43.40
10891;DHT22;5498;50.928;11.598;2022-08-04T19:37:30;31.50;43.60
10891;DHT22;5498;50.928;11.598;2022-08-04T19:40:33;31.40;44.20
10891;DHT22;5498;50.928;11.598;2022-08-04T19:43:36;31.20;44.10
10891;DHT22;5498;50.928;11.598;2022-08-04T19:46:39;31.10;44.10
10891;DHT22;5498;50.928;11.598;2022-08-04T19:49:45;30.90;43.90
10891;DHT22;5498;50.928;11.598;2022-08-04T19:52:47;30.80;44.00
10891;DHT22;5498;50.928;11.598;2022-08-04T19:55:49;30.70;44.00
10891;DHT22;5498;50.928;11.598;2022-08-04T19:58:52;30.60;43.80
10891;DHT22;5498;50.928;11.598;2022-08-04T20:01:54;30.90;44.30
10891;DHT22;5498;50.928;11.598;2022-08-04T20:04:56;30.50;44.40
10891;DHT22;5498;50.928;11.598;2022-08-04T20:08:01;30.40;44.50